Time;durP1;ratioP1;P1;durP2;ratioP2;P2;SDS_P1;SDS_P2;PMS_P1;PMS_P2;Temp;Humidity;BMP_temperature;BMP_pressure;BME280_temperature;BME280_humidity;BME280_pressure;Samples;Min_cycle;Max_cycle;Signal;HPM_P1;HPM_P2
2023/08/27 00:00:57;;;;;;;5.20;3.50;;;;;;;;;;5049043;28;20475;-79
2023/08/27 00:03:23;;;;;;;4.22;3.90;;;;;;;;;;5069338;28;20393;-80
2023/08/27 00:05:49;;;;;;;4.63;3.95;;;;;;;;;;5071799;28;20387;-79
2023/08/27 00:08:15;;;;;;;4.57;3.75;;;;;;;;;;5067458;28;20474;-78
2023/08/27 00:10:41;;;;;;;3.90;3.55;;;;;;;;;;5074165;28;20453;-79
2023/08/27 00:13:07;;;;;;;4.60;3.40;;;;;;;;;;5051426;28;20469;-79
2023/08/27 00:15:33;;;;;;;3.63;3.33;;;;;;;;;;5065591;28;20502;-79
2023/08/27 00:17:59;;;;;;;4.38;3.92;;;;;;;;;;5066868;28;20476;-79
2023/08/27 00:20:25;;;;;;;4.20;3.90;;;;;;;;;;5066002;28;20400;-79
2023/08/27 00:22:51;;;;;;;4.40;3.78;;;;;;;;;;5066884;28;20400;-80
2023/08/27 00:25:17;;;;;;;4.18;3.70;;;;;;;;;;5071573;28;20391;-79
2023/08/27 00:27:43;;;;;;;4.80;4.20;;;;;;;;;;5069000;28;20505;-79
2023/08/27 00:30:10;;;;;;;5.10;4.50;;;;;;;;;;5071493;28;20837;-79
2023/08/27 00:32:36;;;;;;;6.85;5.60;;;;;;;;;;5067446;28;20401;-79
2023/08/27 00:35:05;;;;;;;6.82;5.97;;;;;;;;;;5075704;28;20525;-78
2023/08/27 00:37:31;;;;;;;7.60;6.88;;;;;;;;;;5065777;28;20387;-78
2023/08/27 00:39:57;;;;;;;10.48;8.05;;;;;;;;;;5075215;28;20380;-81
2023/08/27 00:42:23;;;;;;;7.30;6.57;;;;;;;;;;5076053;28;20390;-79
2023/08/27 00:44:49;;;;;;;11.77;6.97;;;;;;;;;;5074184;28;20710;-78
2023/08/27 00:47:16;;;;;;;8.00;6.22;;;;;;;;;;5076306;28;20410;-81
2023/08/27 00:49:42;;;;;;;6.70;5.73;;;;;;;;;;5076948;28;20421;-80
2023/08/27 00:52:12;;;;;;;5.68;5.20;;;;;;;;;;5065702;28;20380;-81
2023/08/27 00:54:38;;;;;;;6.95;5.70;;;;;;;;;;5076460;28;20384;-81
2023/08/27 00:57:04;;;;;;;6.05;5.55;;;;;;;;;;5076913;28;20400;-81
2023/08/27 00:59:31;;;;;;;7.07;5.80;;;;;;;;;;5076879;28;20453;-78
2023/08/27 01:01:57;;;;;;;7.75;5.78;;;;;;;;;;5056305;28;20436;-79
2023/08/27 01:04:22;;;;;;;6.60;5.05;;;;;;;;;;5076135;28;20384;-79
2023/08/27 01:06:49;;;;;;;7.77;5.57;;;;;;;;;;5076861;28;20522;-79
2023/08/27 01:09:30;;;;;;;5.75;5.13;;;;;;;;;;5059366;28;20765;-81
2023/08/27 01:11:56;;;;;;;6.03;5.22;;;;;;;;;;5073853;28;20388;-80
2023/08/27 01:14:23;;;;;;;7.10;5.43;;;;;;;;;;5060437;28;20376;-80
2023/08/27 01:16:51;;;;;;;6.57;5.97;;;;;;;;;;5077372;28;20411;-79
2023/08/27 01:19:17;;;;;;;5.68;5.20;;;;;;;;;;5059618;28;20407;-80
2023/08/27 01:21:44;;;;;;;5.88;5.35;;;;;;;;;;5050182;28;20465;-80
2023/08/27 01:24:10;;;;;;;8.98;5.90;;;;;;;;;;5076079;28;20406;-79
2023/08/27 01:26:36;;;;;;;7.23;6.50;;;;;;;;;;5077800;28;20383;-79
2023/08/27 01:29:10;;;;;;;6.43;5.57;;;;;;;;;;5077069;28;20387;-79
2023/08/27 01:31:40;;;;;;;5.70;5.30;;;;;;;;;;5077160;28;20423;-79
2023/08/27 01:34:08;;;;;;;6.65;5.43;;;;;;;;;;5077026;28;20383;-79
2023/08/27 01:36:35;;;;;;;5.80;5.30;;;;;;;;;;5077052;28;20461;-79
2023/08/27 01:39:03;;;;;;;5.45;4.95;;;;;;;;;;5077540;28;20395;-78
2023/08/27 01:41:29;;;;;;;4.72;4.32;;;;;;;;;;5078432;28;20391;-80
2023/08/27 01:43:55;;;;;;;6.38;5.25;;;;;;;;;;5076118;28;20515;-79
2023/08/27 01:46:21;;;;;;;7.47;5.20;;;;;;;;;;5077497;28;20388;-80
2023/08/27 01:48:47;;;;;;;6.43;5.13;;;;;;;;;;5058855;28;20486;-79
2023/08/27 01:51:13;;;;;;;5.47;4.97;;;;;;;;;;5077781;28;20411;-79
2023/08/27 01:53:39;;;;;;;5.63;5.07;;;;;;;;;;5077530;28;20788;-78
2023/08/27 01:56:05;;;;;;;5.93;5.43;;;;;;;;;;5074811;28;20423;-80
2023/08/27 01:58:31;;;;;;;5.75;5.22;;;;;;;;;;5075955;28;20403;-78
2023/08/27 02:00:57;;;;;;;7.13;5.50;;;;;;;;;;5070424;28;20395;-79
2023/08/27 02:03:23;;;;;;;6.78;5.97;;;;;;;;;;5055671;28;20380;-79
2023/08/27 02:05:49;;;;;;;7.82;6.40;;;;;;;;;;5075866;28;20395;-79
2023/08/27 02:08:15;;;;;;;6.50;5.80;;;;;;;;;;5075806;28;20913;-79
2023/08/27 02:10:41;;;;;;;6.57;6.00;;;;;;;;;;5076720;28;20405;-78
2023/08/27 02:13:07;;;;;;;6.63;6.03;;;;;;;;;;5076768;28;20445;-79
2023/08/27 02:15:33;;;;;;;6.60;6.00;;;;;;;;;;5075619;28;20431;-79
2023/08/27 02:17:59;;;;;;;7.45;5.90;;;;;;;;;;5076954;28;20380;-79
2023/08/27 02:20:25;;;;;;;6.53;5.93;;;;;;;;;;5077119;28;20403;-80
2023/08/27 02:22:56;;;;;;;7.13;6.35;;;;;;;;;;5134841;27;20368;-79
2023/08/27 02:25:22;;;;;;;7.03;6.32;;;;;;;;;;5123002;27;20376;-79
2023/08/27 02:27:48;;;;;;;7.82;7.07;;;;;;;;;;5133130;28;20490;-79
2023/08/27 02:30:15;;;;;;;7.80;7.10;;;;;;;;;;5133209;27;20444;-79
2023/08/27 02:32:41;;;;;;;7.35;6.55;;;;;;;;;;5133372;28;20382;-79
2023/08/27 02:35:07;;;;;;;8.47;6.77;;;;;;;;;;5133173;27;20497;-79
2023/08/27 02:37:33;;;;;;;7.10;6.50;;;;;;;;;;5132949;28;20396;-79
2023/08/27 02:39:59;;;;;;;7.45;6.85;;;;;;;;;;5130666;28;20447;-79
2023/08/27 02:42:25;;;;;;;8.05;7.30;;;;;;;;;;5122558;28;20868;-79
2023/08/27 02:44:51;;;;;;;9.98;7.18;;;;;;;;;;5133101;28;20846;-79
2023/08/27 02:47:17;;;;;;;7.97;7.28;;;;;;;;;;5133044;28;20513;-79
2023/08/27 02:49:43;;;;;;;7.43;6.75;;;;;;;;;;5133066;28;20379;-79
2023/08/27 02:52:09;;;;;;;7.97;7.05;;;;;;;;;;5133209;28;20896;-79
2023/08/27 02:54:35;;;;;;;7.35;6.65;;;;;;;;;;5133496;28;20379;-79
2023/08/27 02:57:01;;;;;;;8.88;7.00;;;;;;;;;;5132510;28;20837;-79
2023/08/27 02:59:27;;;;;;;8.77;7.05;;;;;;;;;;5132883;28;20368;-79
2023/08/27 03:01:53;;;;;;;7.30;6.55;;;;;;;;;;5132162;28;20498;-79
2023/08/27 03:04:19;;;;;;;9.30;6.70;;;;;;;;;;5132754;28;20694;-79
2023/08/27 03:06:45;;;;;;;7.20;6.40;;;;;;;;;;5109455;28;20933;-79
2023/08/27 03:09:11;;;;;;;6.70;6.20;;;;;;;;;;5132649;28;20463;-79
2023/08/27 03:11:37;;;;;;;6.85;6.15;;;;;;;;;;5132444;28;20451;-79
2023/08/27 03:14:03;;;;;;;6.27;5.77;;;;;;;;;;5132238;28;20698;-79
2023/08/27 03:16:29;;;;;;;6.80;6.15;;;;;;;;;;5132538;28;20383;-79
2023/08/27 03:18:55;;;;;;;6.95;6.30;;;;;;;;;;5132187;28;20412;-79
2023/08/27 03:21:21;;;;;;;6.53;6.03;;;;;;;;;;5125400;28;20495;-79
2023/08/27 03:23:47;;;;;;;6.50;5.90;;;;;;;;;;5125274;27;20387;-79
2023/08/27 03:26:13;;;;;;;6.35;5.75;;;;;;;;;;5132276;28;20414;-79
2023/08/27 03:28:39;;;;;;;6.85;6.10;;;;;;;;;;5131797;28;20380;-79
2023/08/27 03:31:05;;;;;;;6.63;6.00;;;;;;;;;;5132398;28;20380;-79
2023/08/27 03:33:31;;;;;;;6.63;6.03;;;;;;;;;;5123032;28;20372;-79
2023/08/27 03:35:58;;;;;;;8.60;5.90;;;;;;;;;;5118112;28;20373;-79
2023/08/27 03:38:24;;;;;;;6.72;5.97;;;;;;;;;;5118329;28;20887;-79
2023/08/27 03:40:51;;;;;;;6.15;5.55;;;;;;;;;;5100414;28;20377;-79
2023/08/27 03:43:17;;;;;;;5.90;5.40;;;;;;;;;;5118442;28;20384;-79
2023/08/27 03:45:43;;;;;;;5.82;5.43;;;;;;;;;;5118666;28;20402;-79
2023/08/27 03:48:09;;;;;;;6.20;5.60;;;;;;;;;;5118733;28;20388;-79
2023/08/27 03:50:36;;;;;;;5.88;5.38;;;;;;;;;;5118739;28;20369;-79
2023/08/27 03:53:02;;;;;;;5.63;5.13;;;;;;;;;;5106927;28;20389;-79
2023/08/27 03:55:28;;;;;;;5.55;5.05;;;;;;;;;;5114917;28;20380;-79
2023/08/27 03:57:55;;;;;;;6.88;5.45;;;;;;;;;;5117659;28;20722;-79
2023/08/27 04:00:21;;;;;;;5.22;4.72;;;;;;;;;;5117597;28;20848;-79
2023/08/27 04:02:47;;;;;;;4.53;4.13;;;;;;;;;;5117709;28;20409;-79
2023/08/27 04:05:13;;;;;;;4.32;3.40;;;;;;;;;;5100016;28;20373;-79
2023/08/27 04:07:39;;;;;;;4.05;3.67;;;;;;;;;;5117433;28;20384;-79
2023/08/27 04:10:05;;;;;;;3.60;3.30;;;;;;;;;;5116790;28;20745;-79
2023/08/27 04:12:34;;;;;;;4.03;2.97;;;;;;;;;;5117923;28;20388;-79
2023/08/27 04:15:00;;;;;;;4.35;3.00;;;;;;;;;;5117774;28;20842;-79
2023/08/27 04:17:26;;;;;;;3.50;3.05;;;;;;;;;;5117866;28;20376;-79
2023/08/27 04:19:53;;;;;;;5.45;3.17;;;;;;;;;;5117446;28;20376;-79
2023/08/27 04:22:19;;;;;;;4.28;3.95;;;;;;;;;;5117738;28;20560;-79
2023/08/27 04:24:45;;;;;;;4.32;3.92;;;;;;;;;;5117083;28;20381;-79
2023/08/27 04:27:10;;;;;;;4.00;3.42;;;;;;;;;;5110984;28;20396;-79
2023/08/27 04:29:37;;;;;;;3.92;3.63;;;;;;;;;;5116883;28;20829;-79
2023/08/27 04:32:03;;;;;;;3.58;3.28;;;;;;;;;;5110690;28;20467;-79
2023/08/27 04:34:29;;;;;;;5.10;3.92;;;;;;;;;;5117222;28;20387;-79
2023/08/27 04:37:00;;;;;;;4.60;4.07;;;;;;;;;;5117663;28;20369;-79
2023/08/27 04:39:26;;;;;;;4.72;4.22;;;;;;;;;;5117902;28;20388;-79
2023/08/27 04:41:52;;;;;;;5.03;4.32;;;;;;;;;;5117598;28;20892;-79
2023/08/27 04:44:19;;;;;;;5.28;4.78;;;;;;;;;;5116904;28;20384;-79
2023/08/27 04:46:45;;;;;;;4.70;4.35;;;;;;;;;;5115521;28;20380;-79
2023/08/27 04:49:11;;;;;;;5.20;4.70;;;;;;;;;;5118040;28;20372;-79
2023/08/27 04:51:37;;;;;;;4.68;4.28;;;;;;;;;;5118151;28;20459;-79
2023/08/27 04:54:03;;;;;;;6.90;4.10;;;;;;;;;;5117807;28;20412;-79
2023/08/27 04:56:29;;;;;;;4.40;4.10;;;;;;;;;;5117950;28;20380;-79
2023/08/27 04:58:55;;;;;;;3.85;3.55;;;;;;;;;;5114241;28;20463;-79
2023/08/27 05:01:21;;;;;;;3.25;3.05;;;;;;;;;;5114374;28;20506;-79
2023/08/27 05:03:47;;;;;;;3.20;2.90;;;;;;;;;;5115700;28;20430;-79
2023/08/27 05:06:13;;;;;;;3.25;2.95;;;;;;;;;;5116539;28;20405;-79
2023/08/27 05:08:41;;;;;;;2.80;2.60;;;;;;;;;;5098259;28;20399;-80
2023/08/27 05:11:08;;;;;;;2.70;2.50;;;;;;;;;;5098515;28;20384;-80
2023/08/27 05:13:34;;;;;;;3.30;2.70;;;;;;;;;;5117341;28;20714;-79
2023/08/27 05:16:00;;;;;;;2.60;2.40;;;;;;;;;;5116239;28;20377;-80
2023/08/27 05:18:26;;;;;;;2.72;2.53;;;;;;;;;;5116801;28;20380;-79
2023/08/27 05:20:52;;;;;;;3.65;3.05;;;;;;;;;;5114633;28;20857;-79
2023/08/27 05:23:21;;;;;;;3.20;2.90;;;;;;;;;;5115863;28;20376;-79
2023/08/27 05:25:47;;;;;;;3.10;2.80;;;;;;;;;;5115730;28;20388;-80
2023/08/27 05:28:13;;;;;;;3.08;2.80;;;;;;;;;;5115284;28;20395;-80
2023/08/27 05:30:42;;;;;;;3.43;2.70;;;;;;;;;;5114785;28;20436;-80
2023/08/27 05:33:08;;;;;;;3.22;2.92;;;;;;;;;;5116399;28;20459;-81
2023/08/27 05:35:34;;;;;;;3.22;2.95;;;;;;;;;;5116373;28;20391;-80
2023/08/27 05:38:00;;;;;;;3.53;2.85;;;;;;;;;;5116603;28;20384;-80
2023/08/27 05:40:26;;;;;;;3.53;3.23;;;;;;;;;;5115521;28;20463;-80
2023/08/27 05:42:52;;;;;;;3.90;3.60;;;;;;;;;;5095846;28;20437;-80
2023/08/27 05:45:18;;;;;;;3.45;3.08;;;;;;;;;;5096356;28;20381;-79
2023/08/27 05:47:44;;;;;;;3.80;3.10;;;;;;;;;;5117240;28;20399;-79
2023/08/27 05:50:10;;;;;;;2.75;2.55;;;;;;;;;;5116392;28;20388;-79
2023/08/27 05:52:36;;;;;;;3.25;2.60;;;;;;;;;;5108777;28;20382;-79
2023/08/27 05:55:02;;;;;;;2.50;2.28;;;;;;;;;;5105272;28;20376;-79
2023/08/27 05:57:28;;;;;;;2.70;2.50;;;;;;;;;;5116095;27;20465;-79
2023/08/27 05:59:54;;;;;;;3.40;3.13;;;;;;;;;;5104503;28;20378;-79
2023/08/27 06:02:20;;;;;;;3.83;3.53;;;;;;;;;;5108852;28;20421;-79
2023/08/27 06:04:46;;;;;;;4.00;3.70;;;;;;;;;;5116240;28;20368;-79
2023/08/27 06:07:12;;;;;;;4.43;3.60;;;;;;;;;;5115910;28;20373;-79
2023/08/27 06:09:38;;;;;;;4.25;3.70;;;;;;;;;;5115763;28;20422;-79
2023/08/27 06:12:05;;;;;;;3.53;3.23;;;;;;;;;;5116233;28;20368;-79
2023/08/27 06:14:31;;;;;;;3.50;3.20;;;;;;;;;;5115685;28;20385;-79
2023/08/27 06:16:57;;;;;;;4.15;3.35;;;;;;;;;;5116210;28;20385;-79
2023/08/27 06:19:23;;;;;;;3.78;2.75;;;;;;;;;;5115665;28;20857;-79
2023/08/27 06:21:49;;;;;;;3.30;3.10;;;;;;;;;;5114945;28;20408;-79
2023/08/27 06:24:15;;;;;;;3.35;2.80;;;;;;;;;;5102880;28;20401;-79
2023/08/27 06:26:41;;;;;;;4.27;2.90;;;;;;;;;;5112747;28;20908;-79
2023/08/27 06:29:07;;;;;;;2.75;2.55;;;;;;;;;;5104732;28;20439;-79
2023/08/27 06:31:33;;;;;;;3.70;2.60;;;;;;;;;;5099347;28;20446;-79
2023/08/27 06:33:59;;;;;;;2.60;2.40;;;;;;;;;;5111118;28;20721;-80
2023/08/27 06:36:25;;;;;;;2.65;2.38;;;;;;;;;;5114622;28;20377;-80
2023/08/27 06:38:51;;;;;;;3.30;2.10;;;;;;;;;;5114195;28;20458;-80
2023/08/27 06:41:17;;;;;;;1.90;1.80;;;;;;;;;;5111036;28;20449;-80
2023/08/27 06:43:43;;;;;;;2.30;1.90;;;;;;;;;;5099780;28;20776;-80
2023/08/27 06:46:12;;;;;;;1.95;1.80;;;;;;;;;;5101732;28;20372;-80
2023/08/27 06:48:38;;;;;;;2.20;2.00;;;;;;;;;;5115952;28;20376;-80
2023/08/27 06:51:04;;;;;;;2.58;2.05;;;;;;;;;;5115065;28;20388;-80
2023/08/27 06:53:30;;;;;;;2.10;1.90;;;;;;;;;;5111638;28;20400;-80
2023/08/27 06:55:56;;;;;;;3.20;2.10;;;;;;;;;;5115387;28;20384;-80
2023/08/27 06:58:22;;;;;;;2.25;2.05;;;;;;;;;;5115680;28;20442;-80
2023/08/27 07:00:48;;;;;;;2.05;1.85;;;;;;;;;;5112884;28;20447;-80
2023/08/27 07:03:14;;;;;;;1.60;1.40;;;;;;;;;;5109048;28;20417;-80
2023/08/27 07:05:40;;;;;;;1.42;1.30;;;;;;;;;;5116124;28;20486;-80
2023/08/27 07:08:06;;;;;;;1.63;1.30;;;;;;;;;;5113356;28;20743;-80
2023/08/27 07:10:32;;;;;;;2.58;1.30;;;;;;;;;;5108050;28;20380;-80
2023/08/27 07:12:58;;;;;;;2.40;1.50;;;;;;;;;;5118823;28;20380;-80
2023/08/27 07:15:24;;;;;;;2.47;1.50;;;;;;;;;;5111076;28;20475;-80
2023/08/27 07:17:50;;;;;;;2.35;1.60;;;;;;;;;;5098621;28;20382;-80
2023/08/27 07:20:16;;;;;;;1.92;1.42;;;;;;;;;;5097968;28;20389;-80
2023/08/27 07:22:42;;;;;;;1.35;1.10;;;;;;;;;;5098276;28;20832;-80
2023/08/27 07:25:11;;;;;;;2.22;1.23;;;;;;;;;;5113574;28;20399;-80
2023/08/27 07:27:38;;;;;;;2.10;1.63;;;;;;;;;;5118874;28;20376;-80
2023/08/27 07:30:04;;;;;;;2.53;1.80;;;;;;;;;;5119241;28;20373;-80
2023/08/27 07:32:31;;;;;;;1.73;1.48;;;;;;;;;;5118493;28;20368;-80
2023/08/27 07:34:57;;;;;;;1.48;1.23;;;;;;;;;;5117496;28;20377;-80
2023/08/27 07:37:23;;;;;;;1.70;1.50;;;;;;;;;;5117443;28;20428;-80
2023/08/27 07:39:49;;;;;;;1.58;1.10;;;;;;;;;;5118100;28;20388;-80
2023/08/27 07:42:15;;;;;;;1.13;1.02;;;;;;;;;;5108003;28;20408;-80
2023/08/27 07:44:41;;;;;;;2.63;1.20;;;;;;;;;;5106451;28;20386;-80
2023/08/27 07:47:07;;;;;;;1.38;1.20;;;;;;;;;;5117141;28;20411;-80
2023/08/27 07:49:33;;;;;;;1.40;1.30;;;;;;;;;;5118945;28;20375;-80
2023/08/27 07:51:59;;;;;;;1.80;1.40;;;;;;;;;;5115292;28;20431;-80
2023/08/27 07:54:25;;;;;;;1.40;1.25;;;;;;;;;;5118005;28;20476;-80
2023/08/27 07:56:51;;;;;;;2.88;1.52;;;;;;;;;;5118284;28;20380;-80
2023/08/27 07:59:17;;;;;;;2.58;1.52;;;;;;;;;;5104755;28;20399;-80
2023/08/27 08:01:43;;;;;;;2.05;1.33;;;;;;;;;;5113288;28;20414;-79
2023/08/27 08:04:09;;;;;;;1.70;1.30;;;;;;;;;;5108189;28;20373;-79
2023/08/27 08:06:35;;;;;;;1.33;1.20;;;;;;;;;;5118368;28;20460;-79
2023/08/27 08:09:01;;;;;;;1.83;1.17;;;;;;;;;;5117798;28;20481;-79
2023/08/27 08:11:26;;;;;;;1.27;1.17;;;;;;;;;;5100097;28;20381;-79
2023/08/27 08:13:52;;;;;;;1.52;1.42;;;;;;;;;;5104908;28;20414;-79
2023/08/27 08:16:20;;;;;;;1.30;1.20;;;;;;;;;;5109558;28;20372;-79
2023/08/27 08:18:46;;;;;;;1.35;1.25;;;;;;;;;;5118064;28;20383;-79
2023/08/27 08:21:13;;;;;;;3.63;1.60;;;;;;;;;;5107480;28;20459;-79
2023/08/27 08:23:39;;;;;;;1.70;1.38;;;;;;;;;;5118294;28;20384;-79
2023/08/27 08:26:06;;;;;;;1.95;1.70;;;;;;;;;;5109917;28;20382;-79
2023/08/27 08:28:32;;;;;;;1.60;1.50;;;;;;;;;;5101258;28;20383;-79
2023/08/27 08:30:58;;;;;;;2.05;1.73;;;;;;;;;;5112403;28;20372;-80
2023/08/27 08:33:24;;;;;;;2.58;1.70;;;;;;;;;;5118874;28;20396;-79
2023/08/27 08:35:50;;;;;;;2.00;1.80;;;;;;;;;;5117122;28;20380;-79
2023/08/27 08:38:16;;;;;;;2.28;1.85;;;;;;;;;;5118278;28;20786;-80
2023/08/27 08:40:46;;;;;;;2.08;1.73;;;;;;;;;;5117373;28;20408;-80
2023/08/27 08:43:30;;;;;;;1.60;1.48;;;;;;;;;;5116811;28;20388;-80
2023/08/27 08:45:59;;;;;;;2.05;1.77;;;;;;;;;;5113502;28;20365;-80
2023/08/27 08:48:27;;;;;;;1.77;1.67;;;;;;;;;;5116601;28;20726;-80
2023/08/27 08:50:56;;;;;;;3.00;2.00;;;;;;;;;;5113213;28;20382;-80
2023/08/27 08:53:25;;;;;;;1.63;1.45;;;;;;;;;;5107883;28;20368;-79
2023/08/27 08:55:56;;;;;;;1.95;1.75;;;;;;;;;;5112193;28;20385;-79
2023/08/27 08:58:24;;;;;;;1.77;1.50;;;;;;;;;;5116877;28;20434;-80
2023/08/27 09:00:50;;;;;;;1.93;1.47;;;;;;;;;;5103975;28;20451;-79
2023/08/27 09:03:17;;;;;;;1.52;1.40;;;;;;;;;;5111143;28;20387;-79
2023/08/27 09:05:44;;;;;;;1.40;1.30;;;;;;;;;;5108103;28;20384;-79
2023/08/27 09:08:10;;;;;;;1.30;1.20;;;;;;;;;;5117291;28;20384;-80
2023/08/27 09:10:36;;;;;;;1.45;1.35;;;;;;;;;;5116526;28;20456;-79
2023/08/27 09:13:05;;;;;;;2.40;1.42;;;;;;;;;;5116673;28;20416;-79
2023/08/27 09:15:31;;;;;;;2.57;1.50;;;;;;;;;;5116920;28;20372;-79
2023/08/27 09:17:57;;;;;;;1.90;1.40;;;;;;;;;;5116510;28;20718;-79
2023/08/27 09:20:24;;;;;;;2.15;1.70;;;;;;;;;;5109962;28;20386;-79
2023/08/27 09:22:50;;;;;;;2.00;1.48;;;;;;;;;;5116582;28;20419;-79
2023/08/27 09:25:16;;;;;;;1.60;1.50;;;;;;;;;;5115445;28;20384;-79
2023/08/27 09:27:43;;;;;;;1.50;1.27;;;;;;;;;;5116176;28;20418;-79
2023/08/27 09:30:10;;;;;;;1.67;1.50;;;;;;;;;;5109619;28;20386;-79
2023/08/27 09:32:36;;;;;;;1.80;1.23;;;;;;;;;;5115828;28;20455;-79
2023/08/27 09:35:03;;;;;;;1.98;1.50;;;;;;;;;;5116334;28;20380;-79
2023/08/27 09:37:37;;;;;;;1.38;1.27;;;;;;;;;;5114965;28;20386;-79
2023/08/27 09:40:06;;;;;;;2.40;1.70;;;;;;;;;;5114788;28;20466;-79
2023/08/27 09:42:33;;;;;;;1.73;1.40;;;;;;;;;;5115122;28;20404;-79
2023/08/27 09:44:59;;;;;;;2.22;1.40;;;;;;;;;;5114688;28;20377;-79
2023/08/27 09:47:31;;;;;;;1.40;1.30;;;;;;;;;;5115489;28;20396;-79
2023/08/27 09:49:58;;;;;;;1.30;1.20;;;;;;;;;;5115321;28;20842;-79
2023/08/27 09:52:24;;;;;;;1.63;1.40;;;;;;;;;;5101989;28;20384;-79
2023/08/27 09:54:51;;;;;;;1.90;1.43;;;;;;;;;;5109152;28;20384;-79
2023/08/27 09:57:21;;;;;;;2.30;1.20;;;;;;;;;;5107558;28;20388;-79
2023/08/27 09:59:48;;;;;;;2.00;1.58;;;;;;;;;;5112147;28;20395;-79
2023/08/27 10:02:14;;;;;;;1.47;1.30;;;;;;;;;;5095570;28;20464;-79
2023/08/27 10:05:09;;;;;;;3.20;1.73;;;;;;;;;;5114082;28;20719;-79
2023/08/27 10:07:35;;;;;;;1.73;1.45;;;;;;;;;;5095102;28;20391;-79
2023/08/27 10:10:02;;;;;;;2.20;1.80;;;;;;;;;;5115071;28;20385;-79
2023/08/27 10:12:29;;;;;;;2.60;1.58;;;;;;;;;;5115841;28;20376;-79
2023/08/27 10:14:55;;;;;;;1.67;1.52;;;;;;;;;;5115945;28;20380;-79
2023/08/27 10:17:22;;;;;;;2.50;1.40;;;;;;;;;;5106742;28;20405;-79
2023/08/27 10:19:48;;;;;;;2.05;1.50;;;;;;;;;;5110396;28;20467;-79
2023/08/27 10:22:15;;;;;;;1.80;1.60;;;;;;;;;;5116023;28;20404;-79
2023/08/27 10:24:42;;;;;;;1.42;1.33;;;;;;;;;;5115751;28;20422;-79
2023/08/27 10:27:08;;;;;;;2.05;1.60;;;;;;;;;;5115332;28;20373;-79
2023/08/27 10:29:34;;;;;;;2.00;1.70;;;;;;;;;;5115736;28;20644;-79
2023/08/27 10:32:02;;;;;;;1.55;1.35;;;;;;;;;;5111788;28;20381;-79
2023/08/27 10:34:29;;;;;;;1.60;1.50;;;;;;;;;;5097763;28;20373;-79
2023/08/27 10:37:02;;;;;;;1.70;1.50;;;;;;;;;;5111501;28;20383;-79
2023/08/27 10:39:29;;;;;;;3.03;1.70;;;;;;;;;;5115367;28;20369;-79
2023/08/27 10:41:56;;;;;;;2.10;1.50;;;;;;;;;;5115132;28;20408;-79
2023/08/27 10:44:22;;;;;;;2.10;1.40;;;;;;;;;;5118272;28;20798;-79
2023/08/27 10:47:06;;;;;;;1.40;1.30;;;;;;;;;;5119377;28;20399;-79
2023/08/27 10:49:37;;;;;;;2.05;1.55;;;;;;;;;;5106729;28;20388;-79
2023/08/27 10:52:12;;;;;;;1.50;1.40;;;;;;;;;;5118342;28;20406;-79
2023/08/27 10:54:39;;;;;;;2.30;1.30;;;;;;;;;;5118363;28;20383;-79
2023/08/27 10:57:17;;;;;;;1.90;1.45;;;;;;;;;;5118523;28;20376;-79
2023/08/27 10:59:43;;;;;;;1.33;1.20;;;;;;;;;;5101999;28;20455;-79
2023/08/27 11:02:09;;;;;;;1.30;1.20;;;;;;;;;;5116167;28;20412;-79
2023/08/27 11:04:37;;;;;;;1.30;1.10;;;;;;;;;;5117690;28;20385;-79
2023/08/27 11:07:10;;;;;;;1.95;1.42;;;;;;;;;;5117807;28;20405;-79
2023/08/27 11:09:56;;;;;;;1.63;1.48;;;;;;;;;;5118104;28;20452;-79
2023/08/27 11:12:22;;;;;;;2.50;1.23;;;;;;;;;;5118135;28;20741;-79
2023/08/27 11:14:48;;;;;;;1.63;1.20;;;;;;;;;;5118357;28;20411;-79
2023/08/27 11:17:22;;;;;;;1.85;1.45;;;;;;;;;;5117495;28;20445;-79
2023/08/27 11:19:48;;;;;;;1.83;1.20;;;;;;;;;;5117948;28;20396;-79
2023/08/27 11:22:14;;;;;;;1.23;1.10;;;;;;;;;;5118136;28;20441;-79
2023/08/27 11:24:44;;;;;;;1.40;1.30;;;;;;;;;;5118377;28;20380;-79
2023/08/27 11:27:11;;;;;;;1.50;1.35;;;;;;;;;;5117681;28;20737;-79
2023/08/27 11:29:41;;;;;;;1.90;1.40;;;;;;;;;;5117704;28;20373;-79
2023/08/27 11:32:10;;;;;;;1.70;1.30;;;;;;;;;;5117626;28;20369;-79
2023/08/27 11:34:41;;;;;;;1.40;1.30;;;;;;;;;;5117425;28;20393;-79
2023/08/27 11:37:07;;;;;;;1.83;1.40;;;;;;;;;;5117141;28;20419;-79
2023/08/27 11:39:34;;;;;;;1.98;1.20;;;;;;;;;;5117468;28;20725;-79
2023/08/27 11:42:00;;;;;;;1.17;1.00;;;;;;;;;;5117360;28;20418;-79
2023/08/27 11:44:26;;;;;;;1.38;1.00;;;;;;;;;;5117111;28;20459;-79
2023/08/27 11:46:52;;;;;;;1.65;1.10;;;;;;;;;;5117255;28;20376;-79
2023/08/27 11:49:31;;;;;;;1.27;1.17;;;;;;;;;;5116971;28;20807;-79
2023/08/27 11:51:58;;;;;;;1.08;1.02;;;;;;;;;;5117532;28;20377;-79
2023/08/27 11:54:28;;;;;;;1.67;1.05;;;;;;;;;;5117295;28;20864;-79
2023/08/27 11:56:54;;;;;;;1.58;1.00;;;;;;;;;;5117302;28;20383;-79
2023/08/27 11:59:22;;;;;;;2.10;1.20;;;;;;;;;;5116352;28;20714;-78
2023/08/27 12:01:48;;;;;;;1.10;1.00;;;;;;;;;;5116828;28;20419;-79
2023/08/27 12:04:14;;;;;;;1.13;1.02;;;;;;;;;;5116003;28;20722;-79
2023/08/27 12:06:50;;;;;;;1.42;1.20;;;;;;;;;;5114465;28;20376;-79
2023/08/27 12:09:22;;;;;;;1.45;1.20;;;;;;;;;;5117001;28;20381;-79
2023/08/27 12:11:48;;;;;;;1.47;1.13;;;;;;;;;;5116921;28;20380;-79
2023/08/27 12:14:21;;;;;;;1.60;1.17;;;;;;;;;;5116706;28;20868;-79
2023/08/27 12:16:47;;;;;;;1.20;1.10;;;;;;;;;;5116214;28;20434;-78
2023/08/27 12:19:13;;;;;;;1.42;1.15;;;;;;;;;;5114871;28;20388;-78
2023/08/27 12:21:51;;;;;;;1.80;1.30;;;;;;;;;;5115330;28;20459;-79
2023/08/27 12:24:36;;;;;;;1.70;1.10;;;;;;;;;;5115393;28;20388;-78
2023/08/27 12:27:03;;;;;;;1.80;1.13;;;;;;;;;;5115533;28;20392;-78
2023/08/27 12:29:31;;;;;;;1.30;1.20;;;;;;;;;;5118265;28;20408;-79
2023/08/27 12:31:58;;;;;;;1.50;1.30;;;;;;;;;;5116456;28;20849;-78
2023/08/27 12:34:35;;;;;;;1.20;1.10;;;;;;;;;;5116330;28;20906;-78
2023/08/27 12:37:01;;;;;;;1.45;1.15;;;;;;;;;;5107090;28;20420;-78
2023/08/27 12:39:27;;;;;;;1.55;1.10;;;;;;;;;;5115525;28;20752;-79
2023/08/27 12:41:53;;;;;;;1.23;1.13;;;;;;;;;;5114598;28;20408;-78
2023/08/27 12:44:19;;;;;;;2.43;1.20;;;;;;;;;;5116061;28;20392;-78
2023/08/27 12:46:45;;;;;;;1.50;1.40;;;;;;;;;;5114851;28;20376;-78
2023/08/27 12:49:11;;;;;;;1.38;1.00;;;;;;;;;;5115568;28;20371;-78
2023/08/27 12:51:37;;;;;;;2.15;1.20;;;;;;;;;;5113977;28;20369;-78
2023/08/27 12:54:04;;;;;;;1.48;1.38;;;;;;;;;;5112752;28;20930;-79
2023/08/27 12:56:30;;;;;;;1.25;0.90;;;;;;;;;;5109957;28;20376;-78
2023/08/27 12:58:56;;;;;;;0.93;0.80;;;;;;;;;;5097902;28;20401;-78
2023/08/27 13:01:22;;;;;;;0.80;0.70;;;;;;;;;;5115811;28;20412;-78
2023/08/27 13:03:48;;;;;;;1.40;1.00;;;;;;;;;;5115408;28;20884;-78
2023/08/27 13:06:14;;;;;;;1.00;0.88;;;;;;;;;;5114297;28;20431;-78
2023/08/27 13:08:40;;;;;;;1.42;0.80;;;;;;;;;;5115359;28;20387;-78
2023/08/27 13:11:06;;;;;;;1.05;0.80;;;;;;;;;;5113832;28;20380;-78
2023/08/27 13:13:32;;;;;;;1.20;0.80;;;;;;;;;;5091805;28;20382;-78
2023/08/27 13:15:58;;;;;;;2.35;0.70;;;;;;;;;;5114845;28;20384;-78
2023/08/27 13:18:24;;;;;;;0.90;0.77;;;;;;;;;;5114553;28;20386;-78
2023/08/27 13:20:50;;;;;;;0.88;0.75;;;;;;;;;;5115001;28;20396;-78
2023/08/27 13:23:16;;;;;;;1.40;0.70;;;;;;;;;;5115193;28;20442;-78
2023/08/27 13:25:42;;;;;;;1.00;0.80;;;;;;;;;;5115664;28;20384;-78
2023/08/27 13:28:08;;;;;;;0.60;0.55;;;;;;;;;;5115491;28;20385;-78
2023/08/27 13:30:34;;;;;;;1.48;0.70;;;;;;;;;;5114875;28;20376;-78
2023/08/27 13:33:00;;;;;;;1.08;0.70;;;;;;;;;;5115398;28;20452;-78
2023/08/27 13:35:26;;;;;;;0.50;0.43;;;;;;;;;;5115179;28;20376;-78
2023/08/27 13:37:52;;;;;;;1.33;0.60;;;;;;;;;;5116036;28;20383;-78
2023/08/27 13:40:18;;;;;;;0.80;0.60;;;;;;;;;;5112363;28;20458;-78
2023/08/27 13:42:45;;;;;;;1.10;0.63;;;;;;;;;;5111832;28;20492;-78
2023/08/27 13:45:11;;;;;;;1.92;0.77;;;;;;;;;;5115376;28;20372;-78
2023/08/27 13:47:37;;;;;;;0.80;0.80;;;;;;;;;;5115032;28;20722;-78
2023/08/27 13:50:03;;;;;;;0.90;0.80;;;;;;;;;;5115238;28;20384;-78
2023/08/27 13:52:29;;;;;;;0.93;0.80;;;;;;;;;;5102744;28;20392;-79
2023/08/27 13:54:55;;;;;;;0.98;0.77;;;;;;;;;;5114186;28;20719;-79
2023/08/27 13:57:21;;;;;;;1.67;1.00;;;;;;;;;;5116605;28;20392;-79
2023/08/27 13:59:47;;;;;;;0.93;0.80;;;;;;;;;;5115170;28;20513;-79
2023/08/27 14:02:13;;;;;;;1.05;0.88;;;;;;;;;;5116356;28;20423;-79
2023/08/27 14:04:39;;;;;;;1.35;0.90;;;;;;;;;;5097527;28;20385;-79
2023/08/27 14:07:05;;;;;;;0.70;0.70;;;;;;;;;;5116477;28;20395;-79
2023/08/27 14:09:32;;;;;;;1.30;0.93;;;;;;;;;;5115997;28;20833;-79
2023/08/27 14:11:59;;;;;;;1.92;1.10;;;;;;;;;;5114136;28;20387;-79
2023/08/27 14:14:25;;;;;;;1.40;0.80;;;;;;;;;;5114594;28;20380;-79
2023/08/27 14:16:51;;;;;;;1.20;0.80;;;;;;;;;;5114448;28;20456;-78
2023/08/27 14:19:17;;;;;;;1.50;0.90;;;;;;;;;;5113230;28;20868;-79
2023/08/27 14:21:43;;;;;;;1.13;0.60;;;;;;;;;;5114689;28;20569;-78
2023/08/27 14:24:12;;;;;;;1.00;0.87;;;;;;;;;;5114871;28;20849;-78
2023/08/27 14:26:39;;;;;;;1.17;0.90;;;;;;;;;;5114880;28;20455;-78
2023/08/27 14:29:05;;;;;;;1.58;0.90;;;;;;;;;;5113553;28;20396;-78
2023/08/27 14:31:31;;;;;;;0.93;0.80;;;;;;;;;;5112388;28;20749;-79
2023/08/27 14:34:04;;;;;;;0.98;0.82;;;;;;;;;;5094450;28;20397;-78
2023/08/27 14:36:30;;;;;;;1.25;0.77;;;;;;;;;;5114272;28;20472;-78
2023/08/27 14:38:58;;;;;;;1.70;0.88;;;;;;;;;;5114823;28;20434;-78
2023/08/27 14:41:24;;;;;;;1.38;0.90;;;;;;;;;;5103558;28;20414;-78